Current Weather Conditions: station NFBF1

sailwx.info

Wind from 200 at 3 knots gusting 5

Air temperature 29.4° C

Last reported at 2014-Jul-23 19:54 UTC.
Time now 2014-Jul-23 21:44 UTC

Location: N 25°05' W 081°05'.
View on Google Maps.

See reports from other nearby stations

  
Tides and Currents Weather Stations Pressure Air Temp Water Temp Dewpoint Dewpoint Depression Visibility Wind Speed Wind Dir Waves Ship Positions
date/time (UTC)wind fromknots sea level pressurealtimeterstation pressurevisibilityair tempwater tempwave heightnotes
2014-Jul-23 19:54 200 3 gusting 5 29.4
2014-Jul-23 19:48 210 4 gusting 5 29.4
2014-Jul-23 18:54 200 9 gusting 12 28.6
2014-Jul-23 18:48 200 9 gusting 11 28.7
2014-Jul-23 18:30 190 14 gusting 15 27.7
2014-Jul-23 18:24 190 15 gusting 17 27.9
2014-Jul-23 18:18 190 16 gusting 18 27.6
2014-Jul-23 18:12 200 17 gusting 20 27.8
2014-Jul-23 18:06 200 17 gusting 22 27.8
2014-Jul-23 18:00 210 14 gusting 23 28.9
2014-Jul-23 17:54 210 9 gusting 12 29.0
2014-Jul-23 17:48 200 8 gusting 11 29.2
2014-Jul-23 16:54 230 9 gusting 12 27.1
2014-Jul-23 16:48 230 9 gusting 12 27.1
2014-Jul-23 16:42 210 14 gusting 17 27.5
2014-Jul-23 16:36 210 14 gusting 18 28.2
2014-Jul-23 16:30 220 16 gusting 20 28.3
2014-Jul-23 16:24 250 10 gusting 20 29.0
2014-Jul-23 16:18 250 7 gusting 9 29.0
2014-Jul-23 16:12 250 9 gusting 12 28.8
2014-Jul-23 16:06 240 13 gusting 16 28.6
2014-Jul-23 16:00 240 16 gusting 23 28.8
2014-Jul-23 15:54 220 15 gusting 18 28.6
2014-Jul-23 15:48 200 15 gusting 19 28.9
2014-Jul-23 14:54 160 6 gusting 8 30.5
2014-Jul-23 14:48 170 5 gusting 8 30.3
2014-Jul-23 13:54 180 8 gusting 9 29.8
2014-Jul-23 13:48 190 6 gusting 9 30.1
2014-Jul-23 13:42 190 5 gusting 7 30.1
2014-Jul-23 13:36 190 4 gusting 7 30.1
2014-Jul-23 13:30 190 4 gusting 5 30.0
2014-Jul-23 13:24 190 5 gusting 7 30.1
2014-Jul-23 13:18 180 6 gusting 7 30.1
2014-Jul-23 13:12 200 6 gusting 7 30.1
2014-Jul-23 13:06 180 6 gusting 8 30.1
2014-Jul-23 13:00 180 7 gusting 9 30.2
2014-Jul-23 12:54 190 6 gusting 8 30.2
2014-Jul-23 12:48 180 7 gusting 9 30.2
2014-Jul-23 11:54 160 3 gusting 5 29.7
2014-Jul-23 11:48 200 4 gusting 5 29.7
2014-Jul-23 10:54 180 5 gusting 6 29.4
2014-Jul-23 10:48 170 5 gusting 6 29.4
2014-Jul-23 09:54 130 4 gusting 6 29.1
2014-Jul-23 09:48 130 8 gusting 11 29.3
2014-Jul-23 08:54 170 5 gusting 6 29.6
2014-Jul-23 08:48 150 5 gusting 6 29.6
2014-Jul-23 07:54 130 3 gusting 6 29.6
2014-Jul-23 07:48 140 3 gusting 5 29.6
2014-Jul-23 07:42 140 4 gusting 6 29.5
2014-Jul-23 07:36 130 4 gusting 7 29.6
2014-Jul-23 07:30 140 5 gusting 6 29.5
2014-Jul-23 07:24 140 5 gusting 6 29.5
2014-Jul-23 07:18 130 4 gusting 7 29.5
2014-Jul-23 07:12 130 4 gusting 7 29.5
2014-Jul-23 07:06 150 5 gusting 7 29.5
2014-Jul-23 07:00 130 5 gusting 7 29.5
2014-Jul-23 06:54 150 6 gusting 9 29.6
2014-Jul-23 06:48 150 6 gusting 8 29.6
2014-Jul-23 06:30 120 4 gusting 6 29.5
2014-Jul-23 06:24 120 4 gusting 6 29.6
2014-Jul-23 06:18 130 4 gusting 6 29.6
2014-Jul-23 05:54 130 4 gusting 7 29.6
2014-Jul-23 05:48 150 4 gusting 5 29.6
2014-Jul-23 04:54 130 6 gusting 7 29.6
2014-Jul-23 04:48 140 6 gusting 8 29.6
2014-Jul-23 04:42 130 4 gusting 5 29.5
2014-Jul-23 04:36 130 5 gusting 7 29.6
2014-Jul-23 04:30 130 5 gusting 6 29.5
2014-Jul-23 04:24 120 5 gusting 7 29.5
2014-Jul-23 04:18 130 5 gusting 7 29.5
2014-Jul-23 04:12 140 7 gusting 7 29.6
2014-Jul-23 04:06 120 5 gusting 8 29.6
2014-Jul-23 04:00 110 5 gusting 6 29.6
2014-Jul-23 03:54 110 4 gusting 5 29.6
2014-Jul-23 03:48 090 4 gusting 5 29.5
2014-Jul-23 02:54 130 2 gusting 4 29.3
2014-Jul-23 02:48 110 2 gusting 3 29.3
2014-Jul-23 01:54 030 2 gusting 3 29.2
2014-Jul-23 01:48 040 3 gusting 4 29.3
2014-Jul-23 00:54 360 1 gusting 3 29.3
2014-Jul-23 00:48 330 2 gusting 4 29.3
2014-Jul-22 22:54 330 5 gusting 6 29.8
2014-Jul-22 22:48 330 5 gusting 6 29.7
2014-Jul-22 21:54 320 5 gusting 7 29.3
2014-Jul-22 21:48 320 4 gusting 6 29.1
2014-Jul-22 21:42 320 4 gusting 5 29.2
2014-Jul-22 21:36 320 4 gusting 5 29.1
2014-Jul-22 21:30 330 5 gusting 7 29.1
2014-Jul-22 21:24 330 5 gusting 7 29.1
2014-Jul-22 21:18 330 5 gusting 7 29.2
2014-Jul-22 21:12 310 5 gusting 6 29.1
2014-Jul-22 21:06 310 5 gusting 7 29.1
2014-Jul-22 21:00 310 4 gusting 5 29.2
2014-Jul-22 20:54 300 2 gusting 3 29.3
2014-Jul-22 20:48 300 1 gusting 3 29.3
2014-Jul-22 20:42 320 2 gusting 3 29.3
2014-Jul-22 20:36 310 2 gusting 3 29.2
2014-Jul-22 20:30 290 2 gusting 4 28.9
2014-Jul-22 20:24 260 3 gusting 4 28.9
2014-Jul-22 20:18 260 2 gusting 3 29.1
2014-Jul-22 20:12 240 2 gusting 3 29.2
2014-Jul-22 20:06 29.2
2014-Jul-22 20:00 260 2 gusting 3 29.2
2014-Jul-22 19:54 29.5
2014-Jul-22 19:48 290 2 gusting 4 28.9
2014-Jul-22 18:54 28.8
2014-Jul-22 18:48 080 1 gusting 2 28.7
2014-Jul-22 18:42 28.6
2014-Jul-22 18:36 28.6
2014-Jul-22 18:30 28.5
2014-Jul-22 18:24 28.6
2014-Jul-22 18:18 28.5
2014-Jul-22 18:12 28.2
2014-Jul-22 18:06 160 3 gusting 5 28.1
2014-Jul-22 18:00 180 5 gusting 7 28.0
2014-Jul-22 17:54 180 4 gusting 5 27.9
2014-Jul-22 17:48 190 4 gusting 5 27.9
2014-Jul-22 16:54 160 6 gusting 7 27.6
2014-Jul-22 16:48 160 6 gusting 7 27.5
2014-Jul-22 15:54 160 7 gusting 9 28.0
2014-Jul-22 15:48 140 8 gusting 10 28.3
2014-Jul-22 15:42 150 5 gusting 8 28.3
2014-Jul-22 15:36 170 7 gusting 8 28.4
2014-Jul-22 15:30 190 7 gusting 10 28.3
2014-Jul-22 15:24 210 6 gusting 8 28.3
2014-Jul-22 15:18 220 6 gusting 7 28.2
2014-Jul-22 15:12 220 7 gusting 10 27.9
2014-Jul-22 15:06 240 8 gusting 10 27.9
2014-Jul-22 15:00 240 8 gusting 10 27.8
2014-Jul-22 14:54 240 7 gusting 9 27.7
2014-Jul-22 14:48 250 8 gusting 10 27.6
2014-Jul-22 13:54 250 12 gusting 14 28.0
2014-Jul-22 13:48 250 12 gusting 13 28.0
2014-Jul-22 13:42 240 12 gusting 13 27.9
2014-Jul-22 13:36 240 11 gusting 13 27.4
2014-Jul-22 13:30 230 11 gusting 13 27.2
2014-Jul-22 13:24 230 11 gusting 14 27.0
2014-Jul-22 13:18 220 12 gusting 14 26.9
2014-Jul-22 13:12 220 11 gusting 14 26.9
2014-Jul-22 13:06 220 11 gusting 13 26.8
2014-Jul-22 13:00 220 11 gusting 12 26.8